sensor_id;sensor_type;location;lat;lon;timestamp;temperature;humidity
18794;DHT22;29610;49.022;12.114;2023-06-14T00:00:15;14.10;75.10
18794;DHT22;29610;49.022;12.114;2023-06-14T00:02:44;14.10;75.20
18794;DHT22;29610;49.022;12.114;2023-06-14T00:05:13;14.10;75.80
18794;DHT22;29610;49.022;12.114;2023-06-14T00:07:44;14.00;76.00
18794;DHT22;29610;49.022;12.114;2023-06-14T00:10:15;14.00;76.30
18794;DHT22;29610;49.022;12.114;2023-06-14T00:12:45;13.90;76.70
18794;DHT22;29610;49.022;12.114;2023-06-14T00:15:13;13.80;77.00
18794;DHT22;29610;49.022;12.114;2023-06-14T00:17:42;13.70;77.20
18794;DHT22;29610;49.022;12.114;2023-06-14T00:20:14;13.70;77.70
18794;DHT22;29610;49.022;12.114;2023-06-14T00:22:45;13.70;77.40
18794;DHT22;29610;49.022;12.114;2023-06-14T00:25:15;13.70;77.50
18794;DHT22;29610;49.022;12.114;2023-06-14T00:27:55;13.70;77.40
18794;DHT22;29610;49.022;12.114;2023-06-14T00:30:25;13.80;77.50
18794;DHT22;29610;49.022;12.114;2023-06-14T00:32:58;13.70;77.40
18794;DHT22;29610;49.022;12.114;2023-06-14T00:35:27;13.70;77.70
18794;DHT22;29610;49.022;12.114;2023-06-14T00:37:58;14.90;78.90
18794;DHT22;29610;49.022;12.114;2023-06-14T00:40:27;13.60;78.20
18794;DHT22;29610;49.022;12.114;2023-06-14T00:42:56;13.50;78.50
18794;DHT22;29610;49.022;12.114;2023-06-14T00:45:27;13.40;79.00
18794;DHT22;29610;49.022;12.114;2023-06-14T00:47:56;13.30;79.10
18794;DHT22;29610;49.022;12.114;2023-06-14T00:50:25;13.20;79.40
18794;DHT22;29610;49.022;12.114;2023-06-14T00:52:54;13.30;79.00
18794;DHT22;29610;49.022;12.114;2023-06-14T00:55:25;13.40;78.80
18794;DHT22;29610;49.022;12.114;2023-06-14T00:57:55;13.40;79.00
18794;DHT22;29610;49.022;12.114;2023-06-14T01:00:24;13.30;79.10
18794;DHT22;29610;49.022;12.114;2023-06-14T01:02:55;13.30;79.50
18794;DHT22;29610;49.022;12.114;2023-06-14T01:05:25;13.20;79.20
18794;DHT22;29610;49.022;12.114;2023-06-14T01:08:09;13.10;79.40
18794;DHT22;29610;49.022;12.114;2023-06-14T01:10:59;13.00;80.00
18794;DHT22;29610;49.022;12.114;2023-06-14T01:13:35;12.90;80.10
18794;DHT22;29610;49.022;12.114;2023-06-14T01:16:07;12.90;80.30
18794;DHT22;29610;49.022;12.114;2023-06-14T01:18:36;13.00;79.90
18794;DHT22;29610;49.022;12.114;2023-06-14T01:21:06;13.00;79.40
18794;DHT22;29610;49.022;12.114;2023-06-14T01:23:37;13.00;79.10
18794;DHT22;29610;49.022;12.114;2023-06-14T01:26:05;13.10;78.50
18794;DHT22;29610;49.022;12.114;2023-06-14T01:28:35;13.10;78.40
18794;DHT22;29610;49.022;12.114;2023-06-14T01:31:04;13.00;78.50
18794;DHT22;29610;49.022;12.114;2023-06-14T01:33:36;13.10;78.10
18794;DHT22;29610;49.022;12.114;2023-06-14T01:36:06;13.10;78.00
18794;DHT22;29610;49.022;12.114;2023-06-14T01:38:39;13.10;78.10
18794;DHT22;29610;49.022;12.114;2023-06-14T01:41:10;13.00;78.00
18794;DHT22;29610;49.022;12.114;2023-06-14T01:43:41;13.00;78.40
18794;DHT22;29610;49.022;12.114;2023-06-14T01:46:10;13.00;78.70
18794;DHT22;29610;49.022;12.114;2023-06-14T01:48:41;12.90;78.90
18794;DHT22;29610;49.022;12.114;2023-06-14T01:51:10;12.80;79.10
18794;DHT22;29610;49.022;12.114;2023-06-14T01:53:40;12.70;79.60
18794;DHT22;29610;49.022;12.114;2023-06-14T01:56:10;12.60;80.00
18794;DHT22;29610;49.022;12.114;2023-06-14T01:58:39;12.50;80.10
18794;DHT22;29610;49.022;12.114;2023-06-14T02:01:08;12.50;81.20
18794;DHT22;29610;49.022;12.114;2023-06-14T02:03:38;12.50;80.60
18794;DHT22;29610;49.022;12.114;2023-06-14T02:06:07;12.40;80.70
18794;DHT22;29610;49.022;12.114;2023-06-14T02:08:40;12.40;81.00
18794;DHT22;29610;49.022;12.114;2023-06-14T02:11:09;12.30;81.00
18794;DHT22;29610;49.022;12.114;2023-06-14T02:13:38;12.20;81.30
18794;DHT22;29610;49.022;12.114;2023-06-14T02:16:07;12.20;81.20
18794;DHT22;29610;49.022;12.114;2023-06-14T02:18:37;12.30;81.20
18794;DHT22;29610;49.022;12.114;2023-06-14T02:21:06;12.20;81.90
18794;DHT22;29610;49.022;12.114;2023-06-14T02:23:35;12.20;81.50
18794;DHT22;29610;49.022;12.114;2023-06-14T02:26:06;12.10;81.90
18794;DHT22;29610;49.022;12.114;2023-06-14T02:28:35;12.10;82.00
18794;DHT22;29610;49.022;12.114;2023-06-14T02:31:04;11.90;82.70
18794;DHT22;29610;49.022;12.114;2023-06-14T02:33:33;11.80;83.10
18794;DHT22;29610;49.022;12.114;2023-06-14T02:36:02;11.80;83.10
18794;DHT22;29610;49.022;12.114;2023-06-14T02:38:34;11.80;83.20
18794;DHT22;29610;49.022;12.114;2023-06-14T02:41:03;11.80;83.10
18794;DHT22;29610;49.022;12.114;2023-06-14T02:43:34;11.80;83.10
18794;DHT22;29610;49.022;12.114;2023-06-14T02:46:06;11.70;83.30
18794;DHT22;29610;49.022;12.114;2023-06-14T02:48:35;11.70;83.40
18794;DHT22;29610;49.022;12.114;2023-06-14T02:51:04;11.70;83.60
18794;DHT22;29610;49.022;12.114;2023-06-14T02:53:34;11.60;83.70
18794;DHT22;29610;49.022;12.114;2023-06-14T02:56:03;11.60;84.00
18794;DHT22;29610;49.022;12.114;2023-06-14T02:58:33;11.60;84.00
18794;DHT22;29610;49.022;12.114;2023-06-14T03:01:02;11.70;83.70
18794;DHT22;29610;49.022;12.114;2023-06-14T03:03:33;11.70;83.80
18794;DHT22;29610;49.022;12.114;2023-06-14T03:06:02;11.70;83.60
18794;DHT22;29610;49.022;12.114;2023-06-14T03:08:35;11.70;83.40
18794;DHT22;29610;49.022;12.114;2023-06-14T03:11:12;11.70;83.50
18794;DHT22;29610;49.022;12.114;2023-06-14T03:13:42;11.70;83.60
18794;DHT22;29610;49.022;12.114;2023-06-14T03:16:12;11.70;84.10
18794;DHT22;29610;49.022;12.114;2023-06-14T03:18:41;11.70;84.10
18794;DHT22;29610;49.022;12.114;2023-06-14T03:21:10;11.50;84.60
18794;DHT22;29610;49.022;12.114;2023-06-14T03:23:42;11.40;85.50
18794;DHT22;29610;49.022;12.114;2023-06-14T03:26:12;11.30;86.10
18794;DHT22;29610;49.022;12.114;2023-06-14T03:28:43;11.20;87.00
18794;DHT22;29610;49.022;12.114;2023-06-14T03:31:13;11.10;87.10
18794;DHT22;29610;49.022;12.114;2023-06-14T03:33:43;11.00;87.60
18794;DHT22;29610;49.022;12.114;2023-06-14T03:36:13;11.00;87.50
18794;DHT22;29610;49.022;12.114;2023-06-14T03:38:42;11.00;87.80
18794;DHT22;29610;49.022;12.114;2023-06-14T03:41:12;11.00;87.90
18794;DHT22;29610;49.022;12.114;2023-06-14T03:43:42;11.00;88.20
18794;DHT22;29610;49.022;12.114;2023-06-14T03:46:11;11.10;87.80
18794;DHT22;29610;49.022;12.114;2023-06-14T03:48:41;11.20;87.70
18794;DHT22;29610;49.022;12.114;2023-06-14T03:51:10;11.20;87.70
18794;DHT22;29610;49.022;12.114;2023-06-14T03:53:39;11.30;87.90
18794;DHT22;29610;49.022;12.114;2023-06-14T03:56:28;11.30;87.70
18794;DHT22;29610;49.022;12.114;2023-06-14T03:58:58;11.40;87.70
18794;DHT22;29610;49.022;12.114;2023-06-14T04:01:29;11.40;87.50
18794;DHT22;29610;49.022;12.114;2023-06-14T04:04:00;11.50;87.60
18794;DHT22;29610;49.022;12.114;2023-06-14T04:06:29;11.60;88.00
18794;DHT22;29610;49.022;12.114;2023-06-14T04:09:00;11.70;87.70
18794;DHT22;29610;49.022;12.114;2023-06-14T04:11:32;11.80;87.60
18794;DHT22;29610;49.022;12.114;2023-06-14T04:14:06;11.90;87.00
18794;DHT22;29610;49.022;12.114;2023-06-14T04:16:34;12.10;86.70
18794;DHT22;29610;49.022;12.114;2023-06-14T04:19:03;12.20;86.80
18794;DHT22;29610;49.022;12.114;2023-06-14T04:21:33;12.30;86.30
18794;DHT22;29610;49.022;12.114;2023-06-14T04:24:04;12.40;85.90
18794;DHT22;29610;49.022;12.114;2023-06-14T04:26:34;12.50;86.10
18794;DHT22;29610;49.022;12.114;2023-06-14T04:29:05;12.50;86.00
18794;DHT22;29610;49.022;12.114;2023-06-14T04:31:40;12.60;86.00
18794;DHT22;29610;49.022;12.114;2023-06-14T04:34:10;12.70;85.40
18794;DHT22;29610;49.022;12.114;2023-06-14T04:36:50;12.90;85.10
18794;DHT22;29610;49.022;12.114;2023-06-14T04:39:24;12.90;85.30
18794;DHT22;29610;49.022;12.114;2023-06-14T04:41:56;12.90;84.60
18794;DHT22;29610;49.022;12.114;2023-06-14T04:44:29;12.90;84.50
18794;DHT22;29610;49.022;12.114;2023-06-14T04:47:03;13.00;85.00
18794;DHT22;29610;49.022;12.114;2023-06-14T04:49:34;13.10;84.50
18794;DHT22;29610;49.022;12.114;2023-06-14T04:52:05;13.20;85.20
18794;DHT22;29610;49.022;12.114;2023-06-14T04:54:36;13.50;84.80
18794;DHT22;29610;49.022;12.114;2023-06-14T04:57:08;13.70;84.60
18794;DHT22;29610;49.022;12.114;2023-06-14T04:59:44;13.80;84.40
18794;DHT22;29610;49.022;12.114;2023-06-14T05:02:13;13.90;84.20
18794;DHT22;29610;49.022;12.114;2023-06-14T05:04:42;14.00;83.70
18794;DHT22;29610;49.022;12.114;2023-06-14T05:07:12;14.00;83.70
18794;DHT22;29610;49.022;12.114;2023-06-14T05:09:42;14.70;84.90
18794;DHT22;29610;49.022;12.114;2023-06-14T05:12:12;14.10;84.70
18794;DHT22;29610;49.022;12.114;2023-06-14T05:14:46;14.30;82.40
18794;DHT22;29610;49.022;12.114;2023-06-14T05:17:18;14.40;82.00
18794;DHT22;29610;49.022;12.114;2023-06-14T05:19:47;14.60;81.40
18794;DHT22;29610;49.022;12.114;2023-06-14T05:22:16;14.80;81.10
18794;DHT22;29610;49.022;12.114;2023-06-14T05:24:45;14.80;80.50
18794;DHT22;29610;49.022;12.114;2023-06-14T05:27:16;14.90;80.70
18794;DHT22;29610;49.022;12.114;2023-06-14T05:29:46;15.00;80.60
18794;DHT22;29610;49.022;12.114;2023-06-14T05:32:15;15.10;80.90
18794;DHT22;29610;49.022;12.114;2023-06-14T05:34:44;15.20;80.50
18794;DHT22;29610;49.022;12.114;2023-06-14T05:37:13;15.30;79.90
18794;DHT22;29610;49.022;12.114;2023-06-14T05:39:42;15.30;79.20
18794;DHT22;29610;49.022;12.114;2023-06-14T05:42:11;15.30;80.00
18794;DHT22;29610;49.022;12.114;2023-06-14T05:44:42;15.50;79.80
18794;DHT22;29610;49.022;12.114;2023-06-14T05:47:12;15.50;78.90
18794;DHT22;29610;49.022;12.114;2023-06-14T05:49:41;15.50;79.00
18794;DHT22;29610;49.022;12.114;2023-06-14T05:52:10;15.50;78.70
18794;DHT22;29610;49.022;12.114;2023-06-14T05:54:40;15.60;78.60
18794;DHT22;29610;49.022;12.114;2023-06-14T05:57:10;15.70;77.70
18794;DHT22;29610;49.022;12.114;2023-06-14T05:59:39;15.80;77.80
18794;DHT22;29610;49.022;12.114;2023-06-14T06:02:08;15.90;77.40
18794;DHT22;29610;49.022;12.114;2023-06-14T06:04:38;16.00;76.40
18794;DHT22;29610;49.022;12.114;2023-06-14T06:07:07;15.90;76.60
18794;DHT22;29610;49.022;12.114;2023-06-14T06:09:36;16.00;76.80
18794;DHT22;29610;49.022;12.114;2023-06-14T06:12:07;16.10;76.70
18794;DHT22;29610;49.022;12.114;2023-06-14T06:14:35;16.20;75.90
18794;DHT22;29610;49.022;12.114;2023-06-14T06:17:05;16.20;76.20
18794;DHT22;29610;49.022;12.114;2023-06-14T06:19:34;16.20;76.50
18794;DHT22;29610;49.022;12.114;2023-06-14T06:22:04;16.40;76.50
18794;DHT22;29610;49.022;12.114;2023-06-14T06:24:33;16.40;76.20
18794;DHT22;29610;49.022;12.114;2023-06-14T06:27:03;16.60;76.10
18794;DHT22;29610;49.022;12.114;2023-06-14T06:29:32;16.70;76.00
18794;DHT22;29610;49.022;12.114;2023-06-14T06:32:00;16.80;76.00
18794;DHT22;29610;49.022;12.114;2023-06-14T06:34:29;17.00;75.70
18794;DHT22;29610;49.022;12.114;2023-06-14T06:36:58;17.10;74.60
18794;DHT22;29610;49.022;12.114;2023-06-14T06:39:28;17.20;75.10
18794;DHT22;29610;49.022;12.114;2023-06-14T06:41:57;17.20;74.00
18794;DHT22;29610;49.022;12.114;2023-06-14T06:44:32;17.20;73.30
18794;DHT22;29610;49.022;12.114;2023-06-14T06:47:02;17.20;74.00
18794;DHT22;29610;49.022;12.114;2023-06-14T06:49:31;17.50;75.00
18794;DHT22;29610;49.022;12.114;2023-06-14T06:52:00;17.10;72.70
18794;DHT22;29610;49.022;12.114;2023-06-14T06:54:31;17.60;74.50
18794;DHT22;29610;49.022;12.114;2023-06-14T06:57:00;17.90;72.80
18794;DHT22;29610;49.022;12.114;2023-06-14T06:59:29;18.00;71.50
18794;DHT22;29610;49.022;12.114;2023-06-14T07:01:58;18.10;71.60
18794;DHT22;29610;49.022;12.114;2023-06-14T07:04:27;18.20;71.80
18794;DHT22;29610;49.022;12.114;2023-06-14T07:06:56;18.30;71.00
18794;DHT22;29610;49.022;12.114;2023-06-14T07:09:25;18.60;70.50
18794;DHT22;29610;49.022;12.114;2023-06-14T07:11:55;18.60;69.20
18794;DHT22;29610;49.022;12.114;2023-06-14T07:14:24;18.80;69.60
18794;DHT22;29610;49.022;12.114;2023-06-14T07:16:52;19.00;68.20
18794;DHT22;29610;49.022;12.114;2023-06-14T07:19:21;19.00;66.30
18794;DHT22;29610;49.022;12.114;2023-06-14T07:21:50;19.40;68.70
18794;DHT22;29610;49.022;12.114;2023-06-14T07:24:20;19.60;66.70
18794;DHT22;29610;49.022;12.114;2023-06-14T07:26:49;19.60;67.00
18794;DHT22;29610;49.022;12.114;2023-06-14T07:29:20;19.50;65.80
18794;DHT22;29610;49.022;12.114;2023-06-14T07:31:49;19.70;66.90
18794;DHT22;29610;49.022;12.114;2023-06-14T07:34:18;19.80;65.60
18794;DHT22;29610;49.022;12.114;2023-06-14T07:36:46;19.90;65.30
18794;DHT22;29610;49.022;12.114;2023-06-14T07:39:15;19.90;64.50
18794;DHT22;29610;49.022;12.114;2023-06-14T07:41:44;19.50;64.40
18794;DHT22;29610;49.022;12.114;2023-06-14T07:44:12;19.30;65.00
18794;DHT22;29610;49.022;12.114;2023-06-14T07:46:50;19.50;65.30
18794;DHT22;29610;49.022;12.114;2023-06-14T07:49:18;19.90;66.30
18794;DHT22;29610;49.022;12.114;2023-06-14T07:51:47;20.60;65.40
18794;DHT22;29610;49.022;12.114;2023-06-14T07:54:17;20.80;60.90
18794;DHT22;29610;49.022;12.114;2023-06-14T07:56:46;20.90;61.00
18794;DHT22;29610;49.022;12.114;2023-06-14T07:59:14;21.00;61.20
18794;DHT22;29610;49.022;12.114;2023-06-14T08:01:43;20.80;60.40
18794;DHT22;29610;49.022;12.114;2023-06-14T08:04:15;20.40;64.50
18794;DHT22;29610;49.022;12.114;2023-06-14T08:06:44;20.80;64.00
18794;DHT22;29610;49.022;12.114;2023-06-14T08:09:13;20.80;61.90
18794;DHT22;29610;49.022;12.114;2023-06-14T08:11:42;20.20;63.30
18794;DHT22;29610;49.022;12.114;2023-06-14T08:14:12;20.20;66.30
18794;DHT22;29610;49.022;12.114;2023-06-14T08:16:40;20.40;62.10
18794;DHT22;29610;49.022;12.114;2023-06-14T08:19:09;21.30;60.90
18794;DHT22;29610;49.022;12.114;2023-06-14T08:21:40;22.30;59.30
18794;DHT22;29610;49.022;12.114;2023-06-14T08:24:10;23.00;58.40
18794;DHT22;29610;49.022;12.114;2023-06-14T08:26:39;23.40;57.90
18794;DHT22;29610;49.022;12.114;2023-06-14T08:29:09;24.20;56.40
18794;DHT22;29610;49.022;12.114;2023-06-14T08:31:37;24.50;55.60
18794;DHT22;29610;49.022;12.114;2023-06-14T08:34:06;24.90;55.40
18794;DHT22;29610;49.022;12.114;2023-06-14T08:36:36;25.50;53.40
18794;DHT22;29610;49.022;12.114;2023-06-14T08:39:06;26.00;51.70
18794;DHT22;29610;49.022;12.114;2023-06-14T08:41:36;26.20;52.00
18794;DHT22;29610;49.022;12.114;2023-06-14T08:44:05;25.90;52.40
18794;DHT22;29610;49.022;12.114;2023-06-14T08:46:35;26.10;52.00
18794;DHT22;29610;49.022;12.114;2023-06-14T08:49:06;26.70;51.40
18794;DHT22;29610;49.022;12.114;2023-06-14T08:51:36;27.20;50.30
18794;DHT22;29610;49.022;12.114;2023-06-14T08:54:07;27.60;48.80
18794;DHT22;29610;49.022;12.114;2023-06-14T08:56:38;27.80;47.70
18794;DHT22;29610;49.022;12.114;2023-06-14T08:59:09;27.60;48.80
18794;DHT22;29610;49.022;12.114;2023-06-14T09:01:39;27.30;50.60
18794;DHT22;29610;49.022;12.114;2023-06-14T09:04:22;27.00;49.70
18794;DHT22;29610;49.022;12.114;2023-06-14T09:06:51;26.40;49.40
18794;DHT22;29610;49.022;12.114;2023-06-14T09:09:23;26.40;52.30
18794;DHT22;29610;49.022;12.114;2023-06-14T09:11:53;26.80;50.30
18794;DHT22;29610;49.022;12.114;2023-06-14T09:14:24;26.30;50.80
18794;DHT22;29610;49.022;12.114;2023-06-14T09:16:53;26.00;51.00
18794;DHT22;29610;49.022;12.114;2023-06-14T09:19:24;25.40;50.40
18794;DHT22;29610;49.022;12.114;2023-06-14T09:21:53;25.00;52.20
18794;DHT22;29610;49.022;12.114;2023-06-14T09:24:25;25.20;54.30
18794;DHT22;29610;49.022;12.114;2023-06-14T09:26:54;25.20;53.50
18794;DHT22;29610;49.022;12.114;2023-06-14T09:29:24;25.10;53.40
18794;DHT22;29610;49.022;12.114;2023-06-14T09:31:55;25.00;52.50
18794;DHT22;29610;49.022;12.114;2023-06-14T09:34:24;25.00;54.60
18794;DHT22;29610;49.022;12.114;2023-06-14T09:36:52;24.90;52.80
18794;DHT22;29610;49.022;12.114;2023-06-14T09:39:22;25.10;54.80
18794;DHT22;29610;49.022;12.114;2023-06-14T09:41:53;25.10;52.20
18794;DHT22;29610;49.022;12.114;2023-06-14T09:44:23;24.20;51.60
18794;DHT22;29610;49.022;12.114;2023-06-14T09:46:56;23.70;52.10
18794;DHT22;29610;49.022;12.114;2023-06-14T09:49:26;24.10;53.70
18794;DHT22;29610;49.022;12.114;2023-06-14T09:51:59;24.70;53.10
18794;DHT22;29610;49.022;12.114;2023-06-14T09:54:29;25.00;51.90
18794;DHT22;29610;49.022;12.114;2023-06-14T09:57:03;24.90;50.50
18794;DHT22;29610;49.022;12.114;2023-06-14T09:59:34;24.40;51.40
18794;DHT22;29610;49.022;12.114;2023-06-14T10:02:12;24.50;53.20
18794;DHT22;29610;49.022;12.114;2023-06-14T10:04:58;24.00;52.00
18794;DHT22;29610;49.022;12.114;2023-06-14T10:07:39;23.80;53.30
18794;DHT22;29610;49.022;12.114;2023-06-14T10:10:10;24.30;55.00
18794;DHT22;29610;49.022;12.114;2023-06-14T10:12:41;25.00;54.40
18794;DHT22;29610;49.022;12.114;2023-06-14T10:15:14;25.50;52.20
18794;DHT22;29610;49.022;12.114;2023-06-14T10:17:52;25.80;54.10
18794;DHT22;29610;49.022;12.114;2023-06-14T10:20:32;26.00;53.80
18794;DHT22;29610;49.022;12.114;2023-06-14T10:23:08;26.50;50.00
18794;DHT22;29610;49.022;12.114;2023-06-14T10:25:42;26.90;51.10
18794;DHT22;29610;49.022;12.114;2023-06-14T10:28:18;27.00;50.50
18794;DHT22;29610;49.022;12.114;2023-06-14T10:31:05;26.70;51.00
18794;DHT22;29610;49.022;12.114;2023-06-14T10:33:36;26.70;51.80
18794;DHT22;29610;49.022;12.114;2023-06-14T10:36:25;26.50;52.80
18794;DHT22;29610;49.022;12.114;2023-06-14T10:38:59;26.80;53.80
18794;DHT22;29610;49.022;12.114;2023-06-14T10:41:35;26.30;49.20
18794;DHT22;29610;49.022;12.114;2023-06-14T10:44:43;26.10;51.80
18794;DHT22;29610;49.022;12.114;2023-06-14T10:47:23;26.30;52.50
18794;DHT22;29610;49.022;12.114;2023-06-14T10:49:54;26.40;53.10
18794;DHT22;29610;49.022;12.114;2023-06-14T10:52:26;27.00;52.90
18794;DHT22;29610;49.022;12.114;2023-06-14T10:55:07;27.10;52.00
18794;DHT22;29610;49.022;12.114;2023-06-14T10:57:40;27.40;50.00
18794;DHT22;29610;49.022;12.114;2023-06-14T11:00:22;28.90;47.80
18794;DHT22;29610;49.022;12.114;2023-06-14T11:06:15;32.20;44.20
18794;DHT22;29610;49.022;12.114;2023-06-14T11:09:25;32.20;41.50
18794;DHT22;29610;49.022;12.114;2023-06-14T11:12:12;33.00;41.90
18794;DHT22;29610;49.022;12.114;2023-06-14T11:14:45;32.80;40.60
18794;DHT22;29610;49.022;12.114;2023-06-14T11:17:16;31.90;41.80
18794;DHT22;29610;49.022;12.114;2023-06-14T11:19:47;30.80;41.20
18794;DHT22;29610;49.022;12.114;2023-06-14T11:22:16;29.50;43.60
18794;DHT22;29610;49.022;12.114;2023-06-14T11:24:46;28.40;44.60
18794;DHT22;29610;49.022;12.114;2023-06-14T11:27:14;27.20;47.20
18794;DHT22;29610;49.022;12.114;2023-06-14T11:29:48;26.20;47.40
18794;DHT22;29610;49.022;12.114;2023-06-14T11:32:18;25.00;50.20
18794;DHT22;29610;49.022;12.114;2023-06-14T11:34:47;23.70;51.80
18794;DHT22;29610;49.022;12.114;2023-06-14T11:37:17;24.20;53.30
18794;DHT22;29610;49.022;12.114;2023-06-14T11:39:46;26.00;51.00
18794;DHT22;29610;49.022;12.114;2023-06-14T11:42:15;27.40;47.80
18794;DHT22;29610;49.022;12.114;2023-06-14T11:44:46;26.80;47.30
18794;DHT22;29610;49.022;12.114;2023-06-14T11:47:15;25.90;48.90
18794;DHT22;29610;49.022;12.114;2023-06-14T11:49:46;26.20;49.50
18794;DHT22;29610;49.022;12.114;2023-06-14T11:52:15;26.10;48.90
18794;DHT22;29610;49.022;12.114;2023-06-14T11:54:44;25.10;50.00
18794;DHT22;29610;49.022;12.114;2023-06-14T11:57:18;25.70;51.00
18794;DHT22;29610;49.022;12.114;2023-06-14T11:59:48;23.00;52.10
18794;DHT22;29610;49.022;12.114;2023-06-14T12:02:18;22.70;52.50
18794;DHT22;29610;49.022;12.114;2023-06-14T12:04:52;22.70;53.30
18794;DHT22;29610;49.022;12.114;2023-06-14T12:07:22;22.60;54.20
18794;DHT22;29610;49.022;12.114;2023-06-14T12:10:09;22.80;54.00
18794;DHT22;29610;49.022;12.114;2023-06-14T12:12:39;23.10;53.60
18794;DHT22;29610;49.022;12.114;2023-06-14T12:15:09;23.40;53.70
18794;DHT22;29610;49.022;12.114;2023-06-14T12:17:42;23.10;51.40
18794;DHT22;29610;49.022;12.114;2023-06-14T12:20:13;22.80;52.10
18794;DHT22;29610;49.022;12.114;2023-06-14T12:22:53;22.80;52.40
18794;DHT22;29610;49.022;12.114;2023-06-14T12:25:26;22.60;52.60
18794;DHT22;29610;49.022;12.114;2023-06-14T12:27:58;22.50;53.20
18794;DHT22;29610;49.022;12.114;2023-06-14T12:30:28;22.70;55.80
18794;DHT22;29610;49.022;12.114;2023-06-14T12:32:56;23.00;55.10
18794;DHT22;29610;49.022;12.114;2023-06-14T12:35:28;23.20;54.50
18794;DHT22;29610;49.022;12.114;2023-06-14T12:37:57;23.40;54.30
18794;DHT22;29610;49.022;12.114;2023-06-14T12:40:26;23.60;54.50
18794;DHT22;29610;49.022;12.114;2023-06-14T12:42:54;24.00;54.30
18794;DHT22;29610;49.022;12.114;2023-06-14T12:45:23;23.90;54.20
18794;DHT22;29610;49.022;12.114;2023-06-14T12:47:53;23.60;53.40
18794;DHT22;29610;49.022;12.114;2023-06-14T12:50:22;24.00;52.40
18794;DHT22;29610;49.022;12.114;2023-06-14T12:52:54;24.20;53.00
18794;DHT22;29610;49.022;12.114;2023-06-14T12:55:23;24.60;52.50
18794;DHT22;29610;49.022;12.114;2023-06-14T12:57:52;24.40;50.70
18794;DHT22;29610;49.022;12.114;2023-06-14T13:00:21;24.50;50.30
18794;DHT22;29610;49.022;12.114;2023-06-14T13:02:50;24.20;49.90
18794;DHT22;29610;49.022;12.114;2023-06-14T13:05:19;24.00;49.90
18794;DHT22;29610;49.022;12.114;2023-06-14T13:07:48;23.70;49.10
18794;DHT22;29610;49.022;12.114;2023-06-14T13:10:18;23.90;50.60
18794;DHT22;29610;49.022;12.114;2023-06-14T13:12:47;24.30;51.60
18794;DHT22;29610;49.022;12.114;2023-06-14T13:15:15;24.70;51.60
18794;DHT22;29610;49.022;12.114;2023-06-14T13:17:44;24.90;49.50
18794;DHT22;29610;49.022;12.114;2023-06-14T13:20:16;25.00;51.20
18794;DHT22;29610;49.022;12.114;2023-06-14T13:22:46;25.80;53.90
18794;DHT22;29610;49.022;12.114;2023-06-14T13:25:15;27.20;49.50
18794;DHT22;29610;49.022;12.114;2023-06-14T13:27:45;28.70;44.60
18794;DHT22;29610;49.022;12.114;2023-06-14T13:30:14;29.60;44.60
18794;DHT22;29610;49.022;12.114;2023-06-14T13:32:44;29.60;43.50
18794;DHT22;29610;49.022;12.114;2023-06-14T13:35:17;29.70;42.50
18794;DHT22;29610;49.022;12.114;2023-06-14T13:37:45;30.50;42.60
18794;DHT22;29610;49.022;12.114;2023-06-14T13:40:14;29.90;40.90
18794;DHT22;29610;49.022;12.114;2023-06-14T13:42:46;28.70;42.80
18794;DHT22;29610;49.022;12.114;2023-06-14T13:45:15;27.50;44.80
18794;DHT22;29610;49.022;12.114;2023-06-14T13:47:44;26.80;44.60
18794;DHT22;29610;49.022;12.114;2023-06-14T13:50:16;25.80;47.10
18794;DHT22;29610;49.022;12.114;2023-06-14T13:52:45;25.20;46.80
18794;DHT22;29610;49.022;12.114;2023-06-14T13:55:14;24.70;48.50
18794;DHT22;29610;49.022;12.114;2023-06-14T13:57:42;24.30;48.80
18794;DHT22;29610;49.022;12.114;2023-06-14T14:00:14;24.70;49.60
18794;DHT22;29610;49.022;12.114;2023-06-14T14:02:47;24.70;49.70
18794;DHT22;29610;49.022;12.114;2023-06-14T14:05:18;24.60;48.10
18794;DHT22;29610;49.022;12.114;2023-06-14T14:07:48;24.70;48.50
18794;DHT22;29610;49.022;12.114;2023-06-14T14:10:16;24.80;49.20
18794;DHT22;29610;49.022;12.114;2023-06-14T14:12:47;25.00;49.10
18794;DHT22;29610;49.022;12.114;2023-06-14T14:15:18;24.90;48.80
18794;DHT22;29610;49.022;12.114;2023-06-14T14:17:46;25.00;48.20
18794;DHT22;29610;49.022;12.114;2023-06-14T14:20:16;25.30;47.50
18794;DHT22;29610;49.022;12.114;2023-06-14T14:22:45;25.30;48.90
18794;DHT22;29610;49.022;12.114;2023-06-14T14:25:14;25.30;48.60
18794;DHT22;29610;49.022;12.114;2023-06-14T14:27:43;25.10;48.10
18794;DHT22;29610;49.022;12.114;2023-06-14T14:30:12;25.20;48.80
18794;DHT22;29610;49.022;12.114;2023-06-14T14:32:46;25.20;49.10
18794;DHT22;29610;49.022;12.114;2023-06-14T14:35:16;25.50;48.10
18794;DHT22;29610;49.022;12.114;2023-06-14T14:37:45;25.50;47.30
18794;DHT22;29610;49.022;12.114;2023-06-14T14:40:13;25.10;47.70
18794;DHT22;29610;49.022;12.114;2023-06-14T14:42:42;24.50;48.00
18794;DHT22;29610;49.022;12.114;2023-06-14T14:45:11;24.50;49.10
18794;DHT22;29610;49.022;12.114;2023-06-14T14:47:40;24.80;49.00
18794;DHT22;29610;49.022;12.114;2023-06-14T14:50:11;25.30;50.10
18794;DHT22;29610;49.022;12.114;2023-06-14T14:52:40;25.40;47.50
18794;DHT22;29610;49.022;12.114;2023-06-14T14:55:08;25.60;49.20
18794;DHT22;29610;49.022;12.114;2023-06-14T14:57:37;25.70;48.80
18794;DHT22;29610;49.022;12.114;2023-06-14T15:00:07;25.20;48.80
18794;DHT22;29610;49.022;12.114;2023-06-14T15:02:36;24.50;50.30
18794;DHT22;29610;49.022;12.114;2023-06-14T15:05:05;24.10;50.10
18794;DHT22;29610;49.022;12.114;2023-06-14T15:07:36;24.00;51.70
18794;DHT22;29610;49.022;12.114;2023-06-14T15:10:07;24.40;52.40
18794;DHT22;29610;49.022;12.114;2023-06-14T15:12:36;24.90;51.70
18794;DHT22;29610;49.022;12.114;2023-06-14T15:15:06;25.20;49.80
18794;DHT22;29610;49.022;12.114;2023-06-14T15:17:36;25.10;50.00
18794;DHT22;29610;49.022;12.114;2023-06-14T15:20:06;24.90;50.10
18794;DHT22;29610;49.022;12.114;2023-06-14T15:22:37;24.80;49.90
18794;DHT22;29610;49.022;12.114;2023-06-14T15:25:06;24.60;50.50
18794;DHT22;29610;49.022;12.114;2023-06-14T15:27:35;24.40;48.30
18794;DHT22;29610;49.022;12.114;2023-06-14T15:30:05;24.50;49.80
18794;DHT22;29610;49.022;12.114;2023-06-14T15:32:35;25.10;49.60
18794;DHT22;29610;49.022;12.114;2023-06-14T15:35:04;25.20;48.30
18794;DHT22;29610;49.022;12.114;2023-06-14T15:37:33;25.40;49.10
18794;DHT22;29610;49.022;12.114;2023-06-14T15:40:05;25.80;47.60